createdAt,value
2019-02-25T00:00:56.952Z,1009.23
2019-02-25T00:01:56.941Z,1009.26
2019-02-25T00:02:56.945Z,1009.29
2019-02-25T00:03:56.922Z,1009.28
2019-02-25T00:04:56.946Z,1009.23
2019-02-25T00:05:56.900Z,1009.16
2019-02-25T00:06:56.894Z,1009.20
2019-02-25T00:07:56.942Z,1009.19
2019-02-25T00:08:56.867Z,1009.13
2019-02-25T00:09:56.858Z,1009.17
2019-02-25T00:10:56.875Z,1009.10
2019-02-25T00:11:56.840Z,1009.12
2019-02-25T00:12:56.836Z,1009.20
2019-02-25T00:13:56.815Z,1009.18
2019-02-25T00:14:56.805Z,1009.15
2019-02-25T00:15:56.799Z,1009.24
2019-02-25T00:16:56.813Z,1009.28
2019-02-25T00:17:56.790Z,1009.27
2019-02-25T00:18:56.762Z,1009.20
2019-02-25T00:19:56.753Z,1009.21
2019-02-25T00:20:56.742Z,1009.20
2019-02-25T00:21:56.732Z,1009.21
2019-02-25T00:22:56.757Z,1009.26
2019-02-25T00:23:56.730Z,1009.23
2019-02-25T00:24:56.736Z,1009.24
2019-02-25T00:25:56.690Z,1009.19
2019-02-25T00:26:56.678Z,1009.20
2019-02-25T00:27:56.681Z,1009.26
2019-02-25T00:28:56.660Z,1009.28
2019-02-25T00:29:56.648Z,1009.31
2019-02-25T00:30:56.659Z,1009.32
2019-02-25T00:31:56.645Z,1009.35
2019-02-25T00:32:56.635Z,1009.30
2019-02-25T00:33:56.606Z,1009.29
2019-02-25T00:34:56.593Z,1009.27
2019-02-25T00:35:56.592Z,1009.28
2019-02-25T00:36:56.578Z,1009.28
2019-02-25T00:37:56.603Z,1009.30
2019-02-25T00:38:56.552Z,1009.25
2019-02-25T00:39:56.542Z,1009.28
2019-02-25T00:40:56.531Z,1009.31
2019-02-25T00:41:56.522Z,1009.29
2019-02-25T00:42:56.521Z,1009.25
2019-02-25T00:43:56.522Z,1009.25
2019-02-25T00:44:56.523Z,1009.30
2019-02-25T00:45:56.480Z,1009.26
2019-02-25T00:46:56.472Z,1009.31
2019-02-25T00:47:56.470Z,1009.24
2019-02-25T00:48:56.449Z,1009.29
2019-02-25T00:49:56.438Z,1009.19
2019-02-25T00:50:56.456Z,1009.24
2019-02-25T00:51:56.417Z,1009.31
2019-02-25T00:52:56.422Z,1009.30
2019-02-25T00:53:56.394Z,1009.31
2019-02-25T00:54:56.384Z,1009.27
2019-02-25T00:55:56.380Z,1009.31
2019-02-25T00:56:56.414Z,1009.37
2019-02-25T00:57:56.365Z,1009.41
2019-02-25T00:58:56.344Z,1009.41
2019-02-25T00:59:56.333Z,1009.34
2019-02-25T01:00:56.323Z,1009.42
2019-02-25T01:01:56.311Z,1009.50
2019-02-25T01:02:56.365Z,1009.52
2019-02-25T01:03:56.291Z,1009.46
2019-02-25T01:04:56.281Z,1009.42
2019-02-25T01:05:56.269Z,1009.44
2019-02-25T01:06:56.258Z,1009.48
2019-02-25T01:07:56.262Z,1009.53
2019-02-25T01:08:56.259Z,1009.52
2019-02-25T01:09:56.255Z,1009.44
2019-02-25T01:10:56.214Z,1009.50
2019-02-25T01:11:56.206Z,1009.49
2019-02-25T01:12:56.217Z,1009.53
2019-02-25T01:13:56.184Z,1009.49
2019-02-25T01:14:56.175Z,1009.48
2019-02-25T01:15:56.191Z,1009.46
2019-02-25T01:16:56.155Z,1009.57
2019-02-25T01:17:56.147Z,1009.51
2019-02-25T01:18:56.142Z,1009.50
2019-02-25T01:19:56.122Z,1009.48
2019-02-25T01:20:56.111Z,1009.56
2019-02-25T01:21:56.122Z,1009.52
2019-02-25T01:22:56.092Z,1009.46
2019-02-25T01:23:56.090Z,1009.51
2019-02-25T01:24:56.066Z,1009.47
2019-02-25T01:25:56.061Z,1009.52
2019-02-25T01:26:56.047Z,1009.56
2019-02-25T01:27:56.051Z,1009.56
2019-02-25T01:28:56.080Z,1009.52
2019-02-25T01:29:56.014Z,1009.49
2019-02-25T01:30:56.003Z,1009.48
2019-02-25T01:31:55.993Z,1009.50
2019-02-25T01:32:55.981Z,1009.52
2019-02-25T01:33:55.985Z,1009.58
2019-02-25T01:34:55.988Z,1009.51
2019-02-25T01:35:56.003Z,1009.51
2019-02-25T01:36:55.945Z,1009.46
2019-02-25T01:37:55.932Z,1009.40
2019-02-25T01:38:55.932Z,1009.45
2019-02-25T01:39:55.909Z,1009.41
2019-02-25T01:40:55.899Z,1009.42
2019-02-25T01:41:55.916Z,1009.43
2019-02-25T01:42:55.880Z,1009.39
2019-02-25T01:43:55.879Z,1009.40
2019-02-25T01:44:55.861Z,1009.43
2019-02-25T01:45:55.848Z,1009.43
2019-02-25T01:46:55.839Z,1009.43
2019-02-25T01:47:55.843Z,1009.45
2019-02-25T01:48:55.872Z,1009.41
2019-02-25T01:49:55.806Z,1009.41
2019-02-25T01:50:55.795Z,1009.43
2019-02-25T01:51:55.789Z,1009.40
2019-02-25T01:52:55.777Z,1009.41
2019-02-25T01:53:55.774Z,1009.41
2019-02-25T01:54:55.781Z,1009.43
2019-02-25T01:55:55.764Z,1009.40
2019-02-25T01:56:55.731Z,1009.44
2019-02-25T01:57:55.724Z,1009.53
2019-02-25T01:58:55.734Z,1009.50
2019-02-25T01:59:55.700Z,1009.39
2019-02-25T02:00:55.691Z,1009.41
2019-02-25T02:01:55.708Z,1009.45
2019-02-25T02:02:55.670Z,1009.41
2019-02-25T02:03:55.660Z,1009.47
2019-02-25T02:04:55.665Z,1009.41
2019-02-25T02:05:55.642Z,1009.46
2019-02-25T02:06:55.632Z,1009.41
2019-02-25T02:07:55.667Z,1009.47
2019-02-25T02:08:55.644Z,1009.43
2019-02-25T02:09:55.609Z,1009.41
2019-02-25T02:10:55.587Z,1009.42
2019-02-25T02:11:55.576Z,1009.46
2019-02-25T02:12:55.566Z,1009.49
2019-02-25T02:13:55.561Z,1009.52
2019-02-25T02:14:55.601Z,1009.54
2019-02-25T02:15:55.534Z,1009.50
2019-02-25T02:16:55.524Z,1009.47
2019-02-25T02:17:55.522Z,1009.45
2019-02-25T02:18:55.507Z,1009.48
2019-02-25T02:19:55.509Z,1009.39
2019-02-25T02:20:55.512Z,1009.41
2019-02-25T02:21:55.506Z,1009.38
2019-02-25T02:22:55.463Z,1009.43
2019-02-25T02:23:55.458Z,1009.43
2019-02-25T02:24:55.456Z,1009.43
2019-02-25T02:25:55.433Z,1009.43
2019-02-25T02:26:55.421Z,1009.42
2019-02-25T02:27:55.446Z,1009.43
2019-02-25T02:28:55.400Z,1009.44
2019-02-25T02:29:55.402Z,1009.41
2019-02-25T02:30:55.380Z,1009.42
2019-02-25T02:31:55.383Z,1009.39
2019-02-25T02:32:55.360Z,1009.40
2019-02-25T02:33:55.359Z,1009.46
2019-02-25T02:34:55.418Z,1009.41
2019-02-25T02:35:55.328Z,1009.41
2019-02-25T02:36:55.328Z,1009.44
2019-02-25T02:37:55.346Z,1009.46
2019-02-25T02:38:55.299Z,1009.43
2019-02-25T02:39:55.316Z,1009.38
2019-02-25T02:40:55.305Z,1009.43
2019-02-25T02:41:55.299Z,1009.43
2019-02-25T02:42:55.259Z,1009.41
2019-02-25T02:43:55.247Z,1009.42
2019-02-25T02:44:55.237Z,1009.44
2019-02-25T02:45:55.242Z,1009.41
2019-02-25T02:46:55.257Z,1009.44
2019-02-25T02:47:55.209Z,1009.42
2019-02-25T02:48:55.194Z,1009.46
2019-02-25T02:49:55.184Z,1009.49
2019-02-25T02:50:55.185Z,1009.51
2019-02-25T02:51:55.168Z,1009.51
2019-02-25T02:52:55.208Z,1009.46
2019-02-25T02:53:55.161Z,1009.45
2019-02-25T02:54:55.138Z,1009.41
2019-02-25T02:55:55.134Z,1009.43
2019-02-25T02:56:55.116Z,1009.41
2019-02-25T02:57:55.101Z,1009.41
2019-02-25T02:58:55.094Z,1009.42
2019-02-25T02:59:55.126Z,1009.42
2019-02-25T03:00:55.085Z,1009.42
2019-02-25T03:01:55.060Z,1009.43
2019-02-25T03:02:55.051Z,1009.40
2019-02-25T03:03:55.044Z,1009.48
2019-02-25T03:04:55.033Z,1009.52
2019-02-25T03:05:55.079Z,1009.50
2019-02-25T03:06:55.014Z,1009.59
2019-02-25T03:07:54.999Z,1009.60
2019-02-25T03:08:54.989Z,1009.60
2019-02-25T03:09:54.978Z,1009.60
2019-02-25T03:10:54.980Z,1009.60
2019-02-25T03:11:54.977Z,1009.59
2019-02-25T03:12:54.947Z,1009.62
2019-02-25T03:13:54.939Z,1009.63
2019-02-25T03:14:54.931Z,1009.66
2019-02-25T03:15:54.927Z,1009.61
2019-02-25T03:16:54.909Z,1009.54
2019-02-25T03:17:54.938Z,1009.64
2019-02-25T03:18:54.885Z,1009.61
2019-02-25T03:19:54.880Z,1009.62
2019-02-25T03:20:54.876Z,1009.62
2019-02-25T03:21:54.853Z,1009.58
2019-02-25T03:22:54.880Z,1009.59
2019-02-25T03:23:54.851Z,1009.56
2019-02-25T03:24:54.822Z,1009.58
2019-02-25T03:25:54.824Z,1009.55
2019-02-25T03:26:54.802Z,1009.53
2019-02-25T03:27:54.819Z,1009.55
2019-02-25T03:28:54.781Z,1009.61
2019-02-25T03:29:54.791Z,1009.50
2019-02-25T03:30:54.776Z,1009.52
2019-02-25T03:31:54.752Z,1009.58
2019-02-25T03:32:54.747Z,1009.56
2019-02-25T03:33:54.733Z,1009.57
2019-02-25T03:34:54.719Z,1009.59
2019-02-25T03:35:54.766Z,1009.54
2019-02-25T03:36:54.699Z,1009.51
2019-02-25T03:37:54.692Z,1009.47
2019-02-25T03:38:54.681Z,1009.49
2019-02-25T03:39:54.668Z,1009.51
2019-02-25T03:40:54.724Z,1009.51
2019-02-25T03:41:54.684Z,1009.51
2019-02-25T03:42:54.644Z,1009.54
2019-02-25T03:43:54.625Z,1009.54
2019-02-25T03:44:54.616Z,1009.54
2019-02-25T03:45:54.633Z,1009.57
2019-02-25T03:46:54.594Z,1009.63
2019-02-25T03:47:54.609Z,1009.57
2019-02-25T03:48:54.575Z,1009.58
2019-02-25T03:49:54.565Z,1009.58
2019-02-25T03:50:54.564Z,1009.56
2019-02-25T03:51:54.556Z,1009.55
2019-02-25T03:52:54.533Z,1009.57
2019-02-25T03:53:54.536Z,1009.57
2019-02-25T03:54:54.543Z,1009.59
2019-02-25T03:55:54.506Z,1009.54
2019-02-25T03:56:54.504Z,1009.57
2019-02-25T03:57:54.523Z,1009.59
2019-02-25T03:58:54.469Z,1009.60
2019-02-25T03:59:54.464Z,1009.57
2019-02-25T04:00:54.494Z,1009.66
2019-02-25T04:01:54.450Z,1009.63
2019-02-25T04:02:54.430Z,1009.61
2019-02-25T04:03:54.417Z,1009.62
2019-02-25T04:04:54.405Z,1009.73
2019-02-25T04:05:54.399Z,1009.65
2019-02-25T04:06:54.439Z,1009.65
2019-02-25T04:07:54.374Z,1009.61
2019-02-25T04:08:54.366Z,1009.60
2019-02-25T04:09:54.355Z,1009.60
2019-02-25T04:10:54.346Z,1009.51
2019-02-25T04:11:54.345Z,1009.52
2019-02-25T04:12:54.352Z,1009.50
2019-02-25T04:13:54.322Z,1009.54
2019-02-25T04:14:54.301Z,1009.54
2019-02-25T04:15:54.293Z,1009.51
2019-02-25T04:16:54.292Z,1009.45
2019-02-25T04:17:54.275Z,1009.49
2019-02-25T04:18:54.296Z,1009.48
2019-02-25T04:19:54.251Z,1009.41
2019-02-25T04:20:54.287Z,1009.41
2019-02-25T04:21:54.241Z,1009.42
2019-02-25T04:22:54.221Z,1009.49
2019-02-25T04:23:54.210Z,1009.41
2019-02-25T04:24:54.226Z,1009.47
2019-02-25T04:25:54.212Z,1009.41
2019-02-25T04:26:55.753Z,1009.52
2019-02-25T04:27:54.166Z,1009.53
2019-02-25T04:28:54.155Z,1009.51
2019-02-25T04:29:54.144Z,1009.52
2019-02-25T04:30:54.134Z,1009.51
2019-02-25T04:31:54.166Z,1009.50
2019-02-25T04:32:54.114Z,1009.46
2019-02-25T04:33:54.106Z,1009.43
2019-02-25T04:34:54.094Z,1009.47
2019-02-25T04:35:54.086Z,1009.44
2019-02-25T04:36:54.090Z,1009.53
2019-02-25T04:37:54.135Z,1009.49
2019-02-25T04:38:54.050Z,1009.52
2019-02-25T04:39:54.048Z,1009.52
2019-02-25T04:40:54.029Z,1009.50
2019-02-25T04:41:54.032Z,1009.46
2019-02-25T04:42:54.010Z,1009.40
2019-02-25T04:43:54.016Z,1009.38
2019-02-25T04:44:53.988Z,1009.42
2019-02-25T04:45:53.979Z,1009.39
2019-02-25T04:46:53.983Z,1009.41
2019-02-25T04:47:53.957Z,1009.42
2019-02-25T04:48:53.951Z,1009.38
2019-02-25T04:49:53.958Z,1009.26
2019-02-25T04:50:53.927Z,1009.33
2019-02-25T04:51:53.931Z,1009.33
2019-02-25T04:52:53.909Z,1009.37
2019-02-25T04:53:53.897Z,1009.36
2019-02-25T04:54:53.887Z,1009.35
2019-02-25T04:55:53.899Z,1009.36
2019-02-25T04:56:53.876Z,1009.36
2019-02-25T04:57:53.854Z,1009.36
2019-02-25T04:58:53.843Z,1009.31
2019-02-25T04:59:53.832Z,1009.32
2019-02-25T05:00:53.825Z,1009.26
2019-02-25T05:01:53.849Z,1009.30
2019-02-25T05:02:53.801Z,1009.35
2019-02-25T05:03:53.794Z,1009.30
2019-02-25T05:04:53.779Z,1009.29
2019-02-25T05:05:53.769Z,1009.31
2019-02-25T05:06:53.772Z,1009.26
2019-02-25T05:07:53.782Z,1009.30
2019-02-25T05:08:53.741Z,1009.29
2019-02-25T05:09:53.729Z,1009.30
2019-02-25T05:10:53.718Z,1009.30
2019-02-25T05:11:53.719Z,1009.35
2019-02-25T05:12:53.698Z,1009.37
2019-02-25T05:13:53.714Z,1009.35
2019-02-25T05:14:53.706Z,1009.33
2019-02-25T05:15:53.672Z,1009.28
2019-02-25T05:16:53.653Z,1009.31
2019-02-25T05:17:53.654Z,1009.31
2019-02-25T05:18:53.633Z,1009.38
2019-02-25T05:19:53.670Z,1009.41
2019-02-25T05:20:53.613Z,1009.42
2019-02-25T05:21:53.603Z,1009.43
2019-02-25T05:22:53.620Z,1009.50
2019-02-25T05:23:53.582Z,1009.47
2019-02-25T05:24:53.571Z,1009.51
2019-02-25T05:25:53.624Z,1009.48
2019-02-25T05:26:53.558Z,1009.43
2019-02-25T05:27:53.553Z,1009.46
2019-02-25T05:28:53.530Z,1009.43
2019-02-25T05:29:53.518Z,1009.41
2019-02-25T05:30:53.514Z,1009.45
2019-02-25T05:31:53.533Z,1009.36
2019-02-25T05:32:53.523Z,1009.34
2019-02-25T05:33:53.477Z,1009.36
2019-02-25T05:34:53.469Z,1009.34
2019-02-25T05:35:53.465Z,1009.35
2019-02-25T05:36:53.445Z,1009.32
2019-02-25T05:37:53.494Z,1009.30
2019-02-25T05:38:53.426Z,1009.31
2019-02-25T05:39:53.421Z,1009.33
2019-02-25T05:40:53.404Z,1009.34
2019-02-25T05:41:53.402Z,1009.32
2019-02-25T05:42:53.409Z,1009.31
2019-02-25T05:43:53.391Z,1009.34
2019-02-25T05:44:53.400Z,1009.29
2019-02-25T05:45:53.354Z,1009.23
2019-02-25T05:46:53.342Z,1009.23
2019-02-25T05:47:53.350Z,1009.27
2019-02-25T05:48:53.322Z,1009.30
2019-02-25T05:49:53.312Z,1009.28
2019-02-25T05:50:53.323Z,1009.30
2019-02-25T05:51:53.292Z,1009.26
2019-02-25T05:52:53.294Z,1009.30
2019-02-25T05:53:53.269Z,1009.28
2019-02-25T05:54:53.259Z,1009.28
2019-02-25T05:55:53.249Z,1009.24
2019-02-25T05:56:53.264Z,1009.23
2019-02-25T05:57:53.277Z,1009.24
2019-02-25T05:58:53.219Z,1009.35
2019-02-25T05:59:53.210Z,1009.31
2019-02-25T06:00:53.197Z,1009.28
2019-02-25T06:01:53.186Z,1009.28
2019-02-25T06:02:53.190Z,1009.32
2019-02-25T06:03:53.200Z,1009.38
2019-02-25T06:04:53.156Z,1009.41
2019-02-25T06:05:53.175Z,1009.41
2019-02-25T06:06:53.136Z,1009.43
2019-02-25T06:07:53.164Z,1009.41
2019-02-25T06:08:53.114Z,1009.46
2019-02-25T06:09:53.163Z,1009.42
2019-02-25T06:10:53.094Z,1009.48
2019-02-25T06:11:53.083Z,1009.46
2019-02-25T06:12:53.082Z,1009.40
2019-02-25T06:13:53.064Z,1009.36
2019-02-25T06:14:53.053Z,1009.45
2019-02-25T06:15:53.072Z,1009.46
2019-02-25T06:16:53.032Z,1009.51
2019-02-25T06:17:53.042Z,1009.46
2019-02-25T06:18:53.012Z,1009.42
2019-02-25T06:19:53.002Z,1009.43
2019-02-25T06:20:52.989Z,1009.39
2019-02-25T06:21:53.025Z,1009.38
2019-02-25T06:22:52.967Z,1009.47
2019-02-25T06:23:52.972Z,1009.58
2019-02-25T06:24:52.947Z,1009.54
2019-02-25T06:25:52.945Z,1009.53
2019-02-25T06:26:52.926Z,1009.52
2019-02-25T06:27:52.969Z,1009.52
2019-02-25T06:28:52.919Z,1009.54
2019-02-25T06:29:52.896Z,1009.48
2019-02-25T06:30:52.884Z,1009.57
2019-02-25T06:31:52.881Z,1009.62
2019-02-25T06:32:52.867Z,1009.57
2019-02-25T06:33:52.923Z,1009.53
2019-02-25T06:34:52.861Z,1009.56
2019-02-25T06:35:52.832Z,1009.66
2019-02-25T06:36:52.821Z,1009.65
2019-02-25T06:37:52.812Z,1009.61
2019-02-25T06:38:52.815Z,1009.63
2019-02-25T06:39:52.829Z,1009.72
2019-02-25T06:40:52.780Z,1009.67
2019-02-25T06:41:52.769Z,1009.64
2019-02-25T06:42:52.762Z,1009.78
2019-02-25T06:43:52.759Z,1009.72
2019-02-25T06:44:52.737Z,1009.72
2019-02-25T06:45:52.758Z,1009.69
2019-02-25T06:46:52.715Z,1009.73
2019-02-25T06:47:52.708Z,1009.81
2019-02-25T06:48:52.709Z,1009.89
2019-02-25T06:49:52.692Z,1009.74
2019-02-25T06:50:52.677Z,1009.76
2019-02-25T06:51:52.693Z,1009.73
2019-02-25T06:52:52.655Z,1009.78
2019-02-25T06:53:52.657Z,1009.86
2019-02-25T06:54:52.636Z,1009.86
2019-02-25T06:55:52.631Z,1009.86
2019-02-25T06:56:52.615Z,1009.90
2019-02-25T06:57:52.625Z,1009.80
2019-02-25T06:58:52.644Z,1009.71
2019-02-25T06:59:52.582Z,1009.73
2019-02-25T07:00:52.571Z,1009.86
2019-02-25T07:01:52.561Z,1009.87
2019-02-25T07:02:52.551Z,1009.82
2019-02-25T07:03:52.554Z,1009.78
2019-02-25T07:04:52.557Z,1009.81
2019-02-25T07:05:52.520Z,1009.81
2019-02-25T07:06:52.509Z,1009.78
2019-02-25T07:07:52.498Z,1009.75
2019-02-25T07:08:52.487Z,1009.73
2019-02-25T07:09:52.489Z,1009.75
2019-02-25T07:10:52.504Z,1009.79
2019-02-25T07:11:52.479Z,1009.80
2019-02-25T07:12:52.463Z,1009.82
2019-02-25T07:13:52.461Z,1009.80
2019-02-25T07:14:52.436Z,1009.77
2019-02-25T07:15:52.422Z,1009.69
2019-02-25T07:16:52.402Z,1009.73
2019-02-25T07:17:52.392Z,1009.71
2019-02-25T07:18:52.382Z,1009.80
2019-02-25T07:19:52.407Z,1009.78
2019-02-25T07:20:52.360Z,1009.72
2019-02-25T07:21:52.350Z,1009.73
2019-02-25T07:22:52.339Z,1009.72
2019-02-25T07:23:52.329Z,1009.73
2019-02-25T07:24:53.014Z,1009.77
2019-02-25T07:25:52.340Z,1009.76
2019-02-25T07:26:52.298Z,1009.83
2019-02-25T07:27:52.290Z,1009.75
2019-02-25T07:28:52.279Z,1009.81
2019-02-25T07:29:52.278Z,1009.85
2019-02-25T07:30:52.261Z,1009.89
2019-02-25T07:31:52.274Z,1009.87
2019-02-25T07:32:52.235Z,1009.75
2019-02-25T07:33:52.224Z,1009.68
2019-02-25T07:34:52.223Z,1009.75
2019-02-25T07:35:52.204Z,1009.74
2019-02-25T07:36:52.193Z,1009.87
2019-02-25T07:37:52.196Z,1009.87
2019-02-25T07:38:52.201Z,1009.99
2019-02-25T07:39:52.175Z,1010.04
2019-02-25T07:40:52.148Z,1009.93
2019-02-25T07:41:52.139Z,1009.93
2019-02-25T07:42:52.128Z,1009.91
2019-02-25T07:43:52.116Z,1009.90
2019-02-25T07:44:52.157Z,1009.87
2019-02-25T07:45:52.096Z,1009.92
2019-02-25T07:46:52.084Z,1009.98
2019-02-25T07:47:52.075Z,1010.03
2019-02-25T07:48:52.065Z,1010.00
2019-02-25T07:49:52.065Z,1009.93
2019-02-25T07:50:52.064Z,1009.94
2019-02-25T07:51:52.045Z,1009.96
2019-02-25T07:52:52.045Z,1009.97
2019-02-25T07:53:52.038Z,1009.92
2019-02-25T07:54:52.011Z,1009.95
2019-02-25T07:55:51.988Z,1010.01
2019-02-25T07:56:51.979Z,1010.03
2019-02-25T07:57:51.969Z,1010.05
2019-02-25T07:58:51.958Z,1010.01
2019-02-25T07:59:51.967Z,1010.10
2019-02-25T08:00:51.976Z,1010.10
2019-02-25T08:01:51.953Z,1010.13
2019-02-25T08:02:51.941Z,1010.12
2019-02-25T08:03:51.918Z,1010.04
2019-02-25T08:04:51.928Z,1010.05
2019-02-25T08:05:51.894Z,1010.05
2019-02-25T08:06:51.888Z,1010.04
2019-02-25T08:07:51.894Z,1010.03
2019-02-25T08:08:51.853Z,1010.07
2019-02-25T08:09:51.873Z,1010.13
2019-02-25T08:10:51.847Z,1010.13
2019-02-25T08:11:51.873Z,1010.11
2019-02-25T08:12:51.858Z,1010.16
2019-02-25T08:13:51.813Z,1010.12
2019-02-25T08:14:51.842Z,1010.14
2019-02-25T08:15:51.808Z,1010.10
2019-02-25T08:16:51.793Z,1010.15
2019-02-25T08:17:51.775Z,1010.20
2019-02-25T08:18:51.771Z,1010.13
2019-02-25T08:19:51.796Z,1010.07
2019-02-25T08:20:51.749Z,1010.11
2019-02-25T08:21:51.733Z,1010.13
2019-02-25T08:22:51.758Z,1010.08
2019-02-25T08:23:51.728Z,1010.14
2019-02-25T08:24:51.692Z,1010.09
2019-02-25T08:25:52.108Z,1010.11
2019-02-25T08:26:51.662Z,1010.13
2019-02-25T08:27:51.673Z,1010.07
2019-02-25T08:28:51.668Z,1010.03
2019-02-25T08:29:51.639Z,1010.00
2019-02-25T08:30:51.648Z,1010.03
2019-02-25T08:31:51.632Z,1010.11
2019-02-25T08:32:51.622Z,1010.03
2019-02-25T08:33:51.626Z,1009.99
2019-02-25T08:34:51.586Z,1010.02
2019-02-25T08:35:51.604Z,1009.99
2019-02-25T08:36:51.617Z,1010.03
2019-02-25T08:37:51.549Z,1009.95
2019-02-25T08:38:51.560Z,1010.03
2019-02-25T08:39:51.540Z,1009.94
2019-02-25T08:40:51.543Z,1009.93
2019-02-25T08:41:51.511Z,1009.96
2019-02-25T08:42:51.493Z,1010.05
2019-02-25T08:43:51.507Z,1010.11
2019-02-25T08:44:51.491Z,1010.09
2019-02-25T08:45:51.469Z,1010.08
2019-02-25T08:46:51.455Z,1010.04
2019-02-25T08:47:51.437Z,1010.03
2019-02-25T08:48:51.439Z,1010.09
2019-02-25T08:49:51.410Z,1010.11
2019-02-25T08:50:51.427Z,1010.03
2019-02-25T08:51:51.425Z,1010.08
2019-02-25T08:52:51.406Z,1010.07
2019-02-25T08:53:51.400Z,1010.03
2019-02-25T08:54:51.404Z,1010.03
2019-02-25T08:55:51.371Z,1010.07
2019-02-25T08:56:51.335Z,1010.06
2019-02-25T08:57:51.348Z,1010.06
2019-02-25T08:58:51.330Z,1010.10
2019-02-25T08:59:51.336Z,1010.09
2019-02-25T09:00:51.323Z,1010.14
2019-02-25T09:01:51.295Z,1010.08
2019-02-25T09:02:51.298Z,1010.11
2019-02-25T09:03:51.285Z,1010.08
2019-02-25T09:04:51.273Z,1010.14
2019-02-25T09:05:51.270Z,1010.12
2019-02-25T09:06:51.254Z,1010.11
2019-02-25T09:07:51.218Z,1010.18
2019-02-25T09:08:51.222Z,1010.14
2019-02-25T09:09:51.225Z,1010.10
2019-02-25T09:10:51.214Z,1010.11
2019-02-25T09:11:51.181Z,1010.18
2019-02-25T09:12:51.188Z,1010.08
2019-02-25T09:13:51.165Z,1010.09
2019-02-25T09:14:51.163Z,1010.09
2019-02-25T09:15:51.430Z,1010.15
2019-02-25T09:16:51.117Z,1010.07
2019-02-25T09:17:51.120Z,1010.15
2019-02-25T09:18:51.115Z,1010.06
2019-02-25T09:19:51.093Z,1010.08
2019-02-25T09:20:51.090Z,1010.04
2019-02-25T09:21:51.074Z,1010.10
2019-02-25T09:22:51.075Z,1010.14
2019-02-25T09:23:51.047Z,1010.15
2019-02-25T09:24:51.053Z,1010.13
2019-02-25T09:25:51.018Z,1010.13
2019-02-25T09:26:51.017Z,1010.08
2019-02-25T09:27:50.994Z,1010.11
2019-02-25T09:28:50.983Z,1010.14
2019-02-25T09:29:50.972Z,1010.11
2019-02-25T09:30:50.969Z,1010.08
2019-02-25T09:31:50.982Z,1010.11
2019-02-25T09:32:50.941Z,1010.18
2019-02-25T09:33:50.930Z,1010.23
2019-02-25T09:34:50.929Z,1010.16
2019-02-25T09:35:50.913Z,1010.24
2019-02-25T09:36:50.923Z,1010.20
2019-02-25T09:37:50.899Z,1010.22
2019-02-25T09:38:50.881Z,1010.21
2019-02-25T09:39:52.011Z,1010.12
2019-02-25T09:40:50.851Z,1010.11
2019-02-25T09:41:50.856Z,1010.11
2019-02-25T09:42:50.849Z,1010.15
2019-02-25T09:43:50.825Z,1010.23
2019-02-25T09:44:50.827Z,1010.22
2019-02-25T09:45:50.811Z,1010.21
2019-02-25T09:46:50.827Z,1010.20
2019-02-25T09:47:50.796Z,1010.25
2019-02-25T09:48:50.762Z,1010.25
2019-02-25T09:49:51.122Z,1010.22
2019-02-25T09:50:50.753Z,1010.29
2019-02-25T09:51:50.748Z,1010.24
2019-02-25T09:52:50.734Z,1010.27
2019-02-25T09:53:50.724Z,1010.25
2019-02-25T09:54:50.702Z,1010.15
2019-02-25T09:55:50.691Z,1010.18
2019-02-25T09:56:50.676Z,1010.23
2019-02-25T09:57:50.692Z,1010.22
2019-02-25T09:58:51.998Z,1010.24
2019-02-25T09:59:50.645Z,1010.23
2019-02-25T10:00:50.632Z,1010.29
2019-02-25T10:01:50.618Z,1010.33
2019-02-25T10:02:50.699Z,1010.26
2019-02-25T10:03:50.624Z,1010.22
2019-02-25T10:04:50.586Z,1010.22
2019-02-25T10:05:50.575Z,1010.22
2019-02-25T10:06:50.643Z,1010.20
2019-02-25T10:07:50.584Z,1010.13
2019-02-25T10:08:50.564Z,1010.21
2019-02-25T10:09:50.543Z,1010.23
2019-02-25T10:10:50.543Z,1010.15
2019-02-25T10:11:50.514Z,1010.16
2019-02-25T10:12:50.515Z,1010.14
2019-02-25T10:13:51.925Z,1010.15
2019-02-25T10:14:50.485Z,1010.17
2019-02-25T10:15:50.495Z,1010.17
2019-02-25T10:16:50.455Z,1010.12
2019-02-25T10:17:50.471Z,1010.11
2019-02-25T10:18:50.452Z,1010.06
2019-02-25T10:19:50.424Z,1010.02
2019-02-25T10:20:50.413Z,1010.04
2019-02-25T10:21:50.417Z,1010.08
2019-02-25T10:22:50.420Z,1010.12
2019-02-25T10:23:50.398Z,1010.06
2019-02-25T10:24:50.388Z,1010.08
2019-02-25T10:25:50.359Z,1010.09
2019-02-25T10:26:50.345Z,1010.15
2019-02-25T10:27:50.335Z,1010.10
2019-02-25T10:28:50.336Z,1010.10
2019-02-25T10:29:50.311Z,1010.04
2019-02-25T10:30:52.829Z,1010.03
2019-02-25T10:31:50.292Z,1010.02
2019-02-25T10:32:50.288Z,1010.07
2019-02-25T10:33:50.834Z,1010.08
2019-02-25T10:34:50.263Z,1009.95
2019-02-25T10:35:50.255Z,1010.00
2019-02-25T10:36:52.206Z,1010.05
2019-02-25T10:37:50.244Z,1010.05
2019-02-25T10:38:50.237Z,1010.04
2019-02-25T10:39:51.481Z,1010.01
2019-02-25T10:40:52.141Z,1010.04
2019-02-25T10:41:51.158Z,1010.07
2019-02-25T10:42:50.174Z,1010.04
2019-02-25T10:43:50.172Z,1010.07
2019-02-25T10:44:50.159Z,1009.95
2019-02-25T10:45:50.151Z,1009.91
2019-02-25T10:46:50.148Z,1009.88
2019-02-25T10:47:51.652Z,1009.92
2019-02-25T10:48:54.219Z,1009.84
2019-02-25T10:49:51.095Z,1009.83
2019-02-25T10:50:55.907Z,1009.84
2019-02-25T10:51:51.074Z,1009.84
2019-02-25T10:52:50.075Z,1009.84
2019-02-25T10:53:51.631Z,1009.88
2019-02-25T10:54:51.987Z,1009.88
2019-02-25T10:55:50.939Z,1009.84
2019-02-25T10:56:51.636Z,1009.81
2019-02-25T10:57:50.012Z,1009.74
2019-02-25T10:58:50.024Z,1009.79
2019-02-25T10:59:49.997Z,1009.81
2019-02-25T11:00:49.980Z,1009.82
2019-02-25T11:01:49.966Z,1009.79
2019-02-25T11:02:51.183Z,1009.75
2019-02-25T11:03:51.638Z,1009.75
2019-02-25T11:04:51.413Z,1009.78
2019-02-25T11:05:51.602Z,1009.67
2019-02-25T11:06:49.917Z,1009.62
2019-02-25T11:07:49.902Z,1009.64
2019-02-25T11:08:49.903Z,1009.67
2019-02-25T11:09:50.364Z,1009.76
2019-02-25T11:10:50.772Z,1009.71
2019-02-25T11:11:50.617Z,1009.70
2019-02-25T11:12:49.844Z,1009.73
2019-02-25T11:13:49.849Z,1009.67
2019-02-25T11:14:49.824Z,1009.69
2019-02-25T11:15:49.817Z,1009.64
2019-02-25T11:16:50.587Z,1009.61
2019-02-25T11:17:51.678Z,1009.60
2019-02-25T11:18:51.917Z,1009.51
2019-02-25T11:19:49.778Z,1009.51
2019-02-25T11:20:49.759Z,1009.56
2019-02-25T11:21:49.766Z,1009.54
2019-02-25T11:22:49.737Z,1009.49
2019-02-25T11:23:51.662Z,1009.56
2019-02-25T11:24:51.341Z,1009.51
2019-02-25T11:25:51.359Z,1009.53
2019-02-25T11:26:49.692Z,1009.52
2019-02-25T11:27:49.682Z,1009.44
2019-02-25T11:28:49.680Z,1009.47
2019-02-25T11:29:49.667Z,1009.42
2019-02-25T11:30:51.402Z,1009.37
2019-02-25T11:31:51.447Z,1009.41
2019-02-25T11:32:51.700Z,1009.43
2019-02-25T11:33:49.635Z,1009.42
2019-02-25T11:34:49.605Z,1009.43
2019-02-25T11:35:49.594Z,1009.34
2019-02-25T11:36:50.835Z,1009.30
2019-02-25T11:37:51.451Z,1009.30
2019-02-25T11:38:49.588Z,1009.33
2019-02-25T11:39:49.550Z,1009.31
2019-02-25T11:40:49.548Z,1009.33
2019-02-25T11:41:49.532Z,1009.30
2019-02-25T11:42:49.518Z,1009.31
2019-02-25T11:43:50.961Z,1009.27
2019-02-25T11:44:49.531Z,1009.25
2019-02-25T11:45:49.487Z,1009.21
2019-02-25T11:46:49.474Z,1009.20
2019-02-25T11:47:49.466Z,1009.17
2019-02-25T11:48:49.487Z,1009.17
2019-02-25T11:49:50.882Z,1009.19
2019-02-25T11:50:49.430Z,1009.15
2019-02-25T11:51:49.429Z,1009.18
2019-02-25T11:52:49.425Z,1009.15
2019-02-25T11:53:49.409Z,1009.05
2019-02-25T11:54:49.395Z,1009.04
2019-02-25T11:55:49.375Z,1009.03
2019-02-25T11:56:49.373Z,1009.02
2019-02-25T11:57:49.383Z,1008.97
2019-02-25T11:58:49.358Z,1008.97
2019-02-25T11:59:49.336Z,1009.00
2019-02-25T12:00:49.329Z,1008.94
2019-02-25T12:01:49.307Z,1008.98
2019-02-25T12:02:49.301Z,1008.98
2019-02-25T12:03:49.307Z,1008.95
2019-02-25T12:04:49.283Z,1008.89
2019-02-25T12:05:49.264Z,1008.95